Time;durP1;ratioP1;P1;durP2;ratioP2;P2;SDS_P1;SDS_P2;PMS_P1;PMS_P2;Temp;Humidity;BMP_temperature;BMP_pressure;BME280_temperature;BME280_humidity;BME280_pressure;Samples;Min_cycle;Max_cycle;Signal;HPM_P1;HPM_P2
2022/05/16 00:00:17;;;;;;;2.35;1.25;;;13.80;93.60;;;;;;4825631;29;20243;-82
2022/05/16 00:02:44;;;;;;;3.83;1.13;;;13.80;93.40;;;;;;4826428;29;20170;-84
2022/05/16 00:05:10;;;;;;;1.20;0.88;;;13.80;93.30;;;;;;4826027;29;20170;-83
2022/05/16 00:07:37;;;;;;;1.83;0.90;;;13.80;93.30;;;;;;4826177;29;20178;-82
2022/05/16 00:10:04;;;;;;;1.42;0.80;;;13.80;93.30;;;;;;4825996;29;20178;-81
2022/05/16 00:12:29;;;;;;;2.13;1.17;;;13.70;93.30;;;;;;4825722;29;20182;-81
2022/05/16 00:14:55;;;;;;;4.35;0.90;;;13.70;93.50;;;;;;4825554;29;20541;-82
2022/05/16 00:17:24;;;;;;;1.83;1.00;;;13.70;93.40;;;;;;4825960;29;20606;-82
2022/05/16 00:19:49;;;;;;;2.85;1.83;;;13.60;93.60;;;;;;4824654;29;20232;-82
2022/05/16 00:22:15;;;;;;;2.92;0.77;;;13.60;93.60;;;;;;4825865;29;20178;-82
2022/05/16 00:24:43;;;;;;;1.63;0.90;;;13.60;93.80;;;;;;4825780;29;20186;-82
2022/05/16 00:27:10;;;;;;;1.80;1.08;;;13.50;93.90;;;;;;4825682;29;20177;-82
2022/05/16 00:29:36;;;;;;;2.47;1.05;;;13.50;93.90;;;;;;4825572;29;20182;-82
2022/05/16 00:32:03;;;;;;;3.13;1.08;;;13.50;94.20;;;;;;4825733;29;20230;-81
2022/05/16 00:34:29;;;;;;;1.98;0.93;;;13.50;94.10;;;;;;4825937;29;20178;-82
2022/05/16 00:36:54;;;;;;;4.00;1.02;;;13.50;94.20;;;;;;4825877;29;20177;-82
2022/05/16 00:39:21;;;;;;;1.02;0.88;;;13.50;94.40;;;;;;4825639;29;20213;-81
2022/05/16 00:41:48;;;;;;;2.90;1.10;;;13.40;94.50;;;;;;4825345;29;20574;-80
2022/05/16 00:44:14;;;;;;;2.72;1.20;;;13.40;94.80;;;;;;4825187;29;20190;-82
2022/05/16 00:46:41;;;;;;;2.05;0.90;;;13.30;94.90;;;;;;4825797;29;20171;-82
2022/05/16 00:49:24;;;;;;;1.63;1.00;;;13.30;94.90;;;;;;4825595;29;20654;-81
2022/05/16 00:51:57;;;;;;;2.72;1.35;;;13.30;95.00;;;;;;4825521;29;20178;-82
2022/05/16 00:54:37;;;;;;;2.70;1.17;;;13.30;95.00;;;;;;4825304;29;20257;-78
2022/05/16 00:57:12;;;;;;;1.70;1.05;;;13.20;95.40;;;;;;4824296;29;20185;-81
2022/05/16 00:59:50;;;;;;;1.25;0.80;;;13.20;95.40;;;;;;4825205;29;20264;-82
2022/05/16 01:05:06;;;;;;;1.70;1.10;;;13.10;95.80;;;;;;4825299;29;20244;-79
2022/05/16 01:07:35;;;;;;;3.80;1.20;;;13.10;96.00;;;;;;4824185;29;20178;-81
2022/05/16 01:10:03;;;;;;;3.75;1.02;;;13.10;96.10;;;;;;4825270;29;20185;-82
2022/05/16 01:12:40;;;;;;;4.20;1.20;;;13.10;96.10;;;;;;4825276;29;20185;-82
2022/05/16 01:15:09;;;;;;;2.13;1.10;;;13.00;96.00;;;;;;4824784;29;20209;-81
2022/05/16 01:17:35;;;;;;;2.97;1.35;;;13.00;96.10;;;;;;4825145;29;20212;-82
2022/05/16 01:20:01;;;;;;;2.00;1.02;;;13.00;96.10;;;;;;4825412;29;20313;-84
2022/05/16 01:22:32;;;;;;;3.33;1.27;;;12.90;96.30;;;;;;4825876;29;20588;-86
2022/05/16 01:25:15;;;;;;;2.25;1.00;;;12.90;96.40;;;;;;4828495;29;20269;-80
2022/05/16 01:28:04;;;;;;;1.80;1.20;;;12.90;96.50;;;;;;4828774;29;20205;-81
2022/05/16 01:30:37;;;;;;;4.13;1.10;;;12.80;96.70;;;;;;4828082;29;20166;-81
2022/05/16 01:33:03;;;;;;;5.60;1.33;;;12.90;96.80;;;;;;4827204;29;20185;-79
2022/05/16 01:35:31;;;;;;;1.38;1.25;;;12.90;97.10;;;;;;4828241;29;20182;-81
2022/05/16 01:40:42;;;;;;;1.30;1.13;;;12.80;97.40;;;;;;4828447;29;20235;-81
2022/05/16 01:43:09;;;;;;;1.83;1.27;;;12.70;97.50;;;;;;4828029;29;20571;-81
2022/05/16 01:45:36;;;;;;;1.88;1.33;;;12.60;97.60;;;;;;4827768;29;20280;-81
2022/05/16 01:48:02;;;;;;;3.80;1.23;;;12.60;97.80;;;;;;4828224;29;20182;-81
2022/05/16 01:50:28;;;;;;;2.88;1.35;;;12.60;97.90;;;;;;4827958;29;20193;-77
2022/05/16 01:52:53;;;;;;;2.30;1.20;;;12.60;98.10;;;;;;4827874;29;20182;-83
2022/05/16 01:55:20;;;;;;;2.53;1.23;;;12.60;98.00;;;;;;4828031;29;20186;-81
2022/05/16 01:57:46;;;;;;;2.60;1.38;;;12.60;98.30;;;;;;4828050;29;20166;-81
2022/05/16 02:00:13;;;;;;;3.25;1.20;;;12.60;98.40;;;;;;4827631;29;20220;-81
2022/05/16 02:02:42;;;;;;;2.80;1.40;;;12.50;98.60;;;;;;4826479;29;20531;-82
2022/05/16 02:05:17;;;;;;;3.88;1.40;;;12.50;98.70;;;;;;4827443;29;20225;-78
2022/05/16 02:07:43;;;;;;;2.10;1.15;;;12.40;99.10;;;;;;4827834;29;20166;-80
2022/05/16 02:10:10;;;;;;;2.03;1.02;;;12.50;99.10;;;;;;4826658;29;20262;-81
2022/05/16 02:12:36;;;;;;;4.50;1.60;;;12.40;99.30;;;;;;4827628;29;20200;-82
2022/05/16 02:15:05;;;;;;;2.20;1.05;;;12.40;99.30;;;;;;4827420;29;20186;-81
2022/05/16 02:17:30;;;;;;;2.28;1.15;;;12.40;99.20;;;;;;4826484;29;20232;-82
2022/05/16 02:19:56;;;;;;;3.47;1.30;;;12.40;99.50;;;;;;4827406;29;20214;-82
2022/05/16 02:25:07;;;;;;;4.50;1.30;;;12.40;99.40;;;;;;4827535;29;20192;-81
2022/05/16 02:27:34;;;;;;;7.10;1.40;;;12.30;99.90;;;;;;4827499;29;20174;-81
2022/05/16 02:29:59;;;;;;;2.38;1.20;;;12.30;99.90;;;;;;4827293;29;20617;-82
2022/05/16 02:32:25;;;;;;;2.60;1.38;;;12.30;99.90;;;;;;4827253;29;20240;-82
2022/05/16 02:34:51;;;;;;;3.15;1.42;;;12.20;99.90;;;;;;4827324;29;20189;-82
2022/05/16 02:37:17;;;;;;;3.28;1.65;;;12.20;99.90;;;;;;4822617;29;20269;-83
2022/05/16 02:39:44;;;;;;;3.72;1.40;;;12.20;99.90;;;;;;4807955;29;20217;-78
2022/05/16 02:42:11;;;;;;;4.13;1.27;;;12.20;99.90;;;;;;4809088;29;20226;-82
2022/05/16 02:44:40;;;;;;;1.83;1.10;;;12.20;99.90;;;;;;4817694;29;20234;-82
2022/05/16 02:47:06;;;;;;;3.00;1.50;;;12.20;99.90;;;;;;4827281;29;20522;-81
2022/05/16 02:49:32;;;;;;;1.80;1.25;;;12.10;99.90;;;;;;4827461;29;20188;-82
2022/05/16 02:51:58;;;;;;;2.40;1.42;;;12.10;99.90;;;;;;4827062;29;20635;-80
2022/05/16 02:54:24;;;;;;;4.10;1.80;;;12.00;99.90;;;;;;4826959;29;20174;-81
2022/05/16 02:56:50;;;;;;;3.55;1.30;;;12.00;99.90;;;;;;4827110;29;20487;-78
2022/05/16 02:59:17;;;;;;;3.03;1.63;;;12.00;99.90;;;;;;4825433;29;20206;-80
2022/05/16 03:01:42;;;;;;;4.55;1.55;;;12.00;99.90;;;;;;4825571;29;20622;-78
2022/05/16 03:04:08;;;;;;;3.92;1.40;;;11.90;99.90;;;;;;4826868;29;20231;-78
2022/05/16 03:06:34;;;;;;;2.78;1.48;;;11.90;99.90;;;;;;4827034;29;20178;-79
2022/05/16 03:09:00;;;;;;;2.20;1.30;;;11.90;99.90;;;;;;4826690;29;20190;-78
2022/05/16 03:11:26;;;;;;;3.03;1.40;;;11.90;99.90;;;;;;4826734;29;20189;-78
2022/05/16 03:13:52;;;;;;;3.40;1.30;;;11.80;99.90;;;;;;4826674;29;20194;-77
2022/05/16 03:16:18;;;;;;;2.65;1.42;;;11.80;99.90;;;;;;4826222;29;20170;-79
2022/05/16 03:18:43;;;;;;;1.92;1.38;;;11.80;99.90;;;;;;4826711;29;20186;-78
2022/05/16 03:21:10;;;;;;;2.70;1.55;;;11.80;99.90;;;;;;4826608;29;20661;-79
2022/05/16 03:23:36;;;;;;;5.93;1.70;;;11.80;99.90;;;;;;4826593;29;20629;-82
2022/05/16 03:26:02;;;;;;;3.08;1.80;;;11.80;99.90;;;;;;4826743;29;20178;-78
2022/05/16 03:28:29;;;;;;;2.83;1.55;;;11.70;99.90;;;;;;4826579;29;20174;-78
2022/05/16 03:30:57;;;;;;;3.63;1.77;;;11.70;99.90;;;;;;4826092;29;20186;-81
2022/05/16 03:33:24;;;;;;;2.75;1.50;;;11.70;99.90;;;;;;4826806;29;20186;-80
2022/05/16 03:35:55;;;;;;;2.42;1.58;;;11.70;99.90;;;;;;4825181;29;20186;-82
2022/05/16 03:41:10;;;;;;;6.10;1.67;;;11.60;99.90;;;;;;4826199;29;20249;-82
2022/05/16 03:43:38;;;;;;;2.93;1.53;;;11.50;99.90;;;;;;4826143;29;20170;-81
2022/05/16 03:46:04;;;;;;;2.55;1.38;;;11.50;99.90;;;;;;4825377;29;20178;-77
2022/05/16 03:48:32;;;;;;;4.13;1.52;;;11.50;99.90;;;;;;4826690;29;20565;-78
2022/05/16 03:50:58;;;;;;;3.03;1.70;;;11.40;99.90;;;;;;4826298;29;20190;-82
2022/05/16 03:53:23;;;;;;;3.85;2.03;;;11.40;99.90;;;;;;4826132;29;20186;-82
2022/05/16 03:55:49;;;;;;;3.15;1.65;;;11.40;99.90;;;;;;4826069;29;20268;-83
2022/05/16 03:58:15;;;;;;;2.47;1.70;;;11.40;99.90;;;;;;4826184;29;20174;-82
2022/05/16 04:00:41;;;;;;;4.90;1.47;;;11.40;99.90;;;;;;4824711;29;20249;-79
2022/05/16 04:03:08;;;;;;;3.42;1.50;;;11.40;99.90;;;;;;4826069;29;20174;-80
2022/05/16 04:05:35;;;;;;;3.30;1.70;;;11.40;99.90;;;;;;4825925;29;20622;-78
2022/05/16 04:08:01;;;;;;;3.58;1.70;;;11.40;99.90;;;;;;4826253;29;20573;-79
2022/05/16 04:10:27;;;;;;;3.92;1.80;;;11.40;99.90;;;;;;4825909;29;20269;-79
2022/05/16 04:12:54;;;;;;;3.80;1.92;;;11.40;99.90;;;;;;4825760;29;20273;-78
2022/05/16 04:15:21;;;;;;;2.95;1.77;;;11.40;99.90;;;;;;4825587;29;20182;-78
2022/05/16 04:17:48;;;;;;;5.20;1.60;;;11.50;99.90;;;;;;4825952;29;20180;-77
2022/05/16 04:20:13;;;;;;;5.22;1.73;;;11.50;99.90;;;;;;4825795;29;20218;-78
2022/05/16 04:22:40;;;;;;;3.40;1.80;;;11.50;99.90;;;;;;4825999;29;20193;-82
2022/05/16 04:25:08;;;;;;;4.70;1.85;;;11.50;99.90;;;;;;4825569;29;20189;-77
2022/05/16 04:27:33;;;;;;;5.13;1.80;;;11.50;99.90;;;;;;4825796;29;20319;-81
2022/05/16 04:29:59;;;;;;;4.95;1.75;;;11.50;99.90;;;;;;4825546;29;20216;-82
2022/05/16 04:32:25;;;;;;;4.13;1.60;;;11.50;99.90;;;;;;4825818;29;20264;-81
2022/05/16 04:34:51;;;;;;;2.93;1.70;;;11.60;99.90;;;;;;4825801;29;20277;-82
2022/05/16 04:37:16;;;;;;;3.75;1.90;;;11.60;99.90;;;;;;4824475;29;20178;-81
2022/05/16 04:39:42;;;;;;;3.47;1.98;;;11.70;99.90;;;;;;4824275;29;20225;-82
2022/05/16 04:44:52;;;;;;;2.75;1.60;;;11.70;99.90;;;;;;4825373;29;20648;-81
2022/05/16 04:47:18;;;;;;;4.47;2.10;;;11.90;99.90;;;;;;4825680;29;20182;-80
2022/05/16 04:49:44;;;;;;;3.17;1.70;;;11.90;99.90;;;;;;4824303;29;20217;-82
2022/05/16 04:52:11;;;;;;;3.22;1.70;;;12.00;99.90;;;;;;4825463;29;20496;-81
2022/05/16 04:54:40;;;;;;;6.90;1.90;;;12.10;99.90;;;;;;4825369;29;20230;-82
2022/05/16 04:57:06;;;;;;;5.05;1.80;;;12.20;99.90;;;;;;4807442;29;20187;-82
2022/05/16 04:59:32;;;;;;;3.47;1.83;;;12.20;99.90;;;;;;4810771;29;20206;-82
2022/05/16 05:01:58;;;;;;;6.13;2.10;;;12.30;99.90;;;;;;4810896;29;20257;-83
2022/05/16 05:04:25;;;;;;;2.95;1.80;;;12.30;99.90;;;;;;4810788;29;20637;-83
2022/05/16 05:06:51;;;;;;;2.90;1.98;;;12.40;99.90;;;;;;4810643;29;20197;-82
2022/05/16 05:09:17;;;;;;;3.20;1.48;;;12.40;99.90;;;;;;4810801;29;20261;-83
2022/05/16 05:14:33;;;;;;;2.90;1.80;;;12.50;99.90;;;;;;4818518;29;20256;-82
2022/05/16 05:17:03;;;;;;;3.70;1.67;;;12.60;99.90;;;;;;4828521;29;20178;-82
2022/05/16 05:19:30;;;;;;;3.08;1.70;;;12.60;99.90;;;;;;4828568;29;20210;-81
2022/05/16 05:21:55;;;;;;;2.58;1.60;;;12.70;99.90;;;;;;4827206;29;20197;-81
2022/05/16 05:24:21;;;;;;;4.85;1.90;;;12.70;99.90;;;;;;4828547;29;20182;-81
2022/05/16 05:26:47;;;;;;;2.47;1.85;;;12.80;99.90;;;;;;4828566;29;20217;-81
2022/05/16 05:29:15;;;;;;;3.08;1.80;;;12.90;99.90;;;;;;4812192;29;20368;-81
2022/05/16 05:31:41;;;;;;;3.00;1.70;;;12.90;99.90;;;;;;4828185;29;20618;-82
2022/05/16 05:34:08;;;;;;;4.45;1.80;;;13.10;99.90;;;;;;4828297;29;20312;-81
2022/05/16 05:36:35;;;;;;;11.00;1.83;;;13.20;99.90;;;;;;4828225;29;20197;-82
2022/05/16 05:39:02;;;;;;;3.33;1.88;;;13.30;99.90;;;;;;4828635;29;20185;-81
2022/05/16 05:41:28;;;;;;;3.47;1.75;;;13.30;99.90;;;;;;4827932;29;20233;-79
2022/05/16 05:43:54;;;;;;;6.05;2.20;;;13.40;99.90;;;;;;4813303;29;20187;-81
2022/05/16 05:46:20;;;;;;;9.23;2.20;;;13.40;99.90;;;;;;4808877;29;20251;-81
2022/05/16 05:48:46;;;;;;;7.18;1.85;;;13.50;99.90;;;;;;4825424;29;20261;-81
2022/05/16 05:51:12;;;;;;;5.00;1.98;;;13.60;99.90;;;;;;4827919;29;20261;-81
2022/05/16 05:53:40;;;;;;;4.60;2.25;;;13.60;99.90;;;;;;4827952;29;20174;-83
2022/05/16 05:56:05;;;;;;;4.70;1.83;;;13.70;99.90;;;;;;4826327;29;20898;-82
2022/05/16 05:58:32;;;;;;;4.95;2.20;;;13.70;99.90;;;;;;4818969;29;20195;-82
2022/05/16 06:00:59;;;;;;;5.60;1.50;;;13.80;99.90;;;;;;4809674;29;20301;-83
2022/05/16 06:03:25;;;;;;;6.75;1.88;;;14.00;99.90;;;;;;4808024;29;20308;-83
2022/05/16 06:05:51;;;;;;;8.05;2.03;;;14.00;99.90;;;;;;4790827;29;20202;-82
2022/05/16 06:08:23;;;;;;;4.25;1.73;;;14.10;99.90;;;;;;4809639;29;20163;-82
2022/05/16 06:10:49;;;;;;;4.00;1.90;;;14.10;99.90;;;;;;4809706;29;20193;-82
2022/05/16 06:13:19;;;;;;;5.80;1.95;;;14.10;99.90;;;;;;4821888;29;20197;-81
2022/05/16 06:15:45;;;;;;;3.88;1.60;;;14.20;99.90;;;;;;4809986;29;20186;-85
2022/05/16 06:18:11;;;;;;;5.35;2.00;;;14.20;99.90;;;;;;4809713;29;20560;-82
2022/05/16 06:20:37;;;;;;;10.35;1.77;;;14.20;99.90;;;;;;4809577;29;20221;-83
2022/05/16 06:23:03;;;;;;;6.43;1.60;;;14.30;99.90;;;;;;4809517;29;20187;-84
2022/05/16 06:25:39;;;;;;;3.85;1.80;;;14.40;99.90;;;;;;4809421;29;20266;-84
2022/05/16 06:28:12;;;;;;;2.00;1.45;;;14.60;99.90;;;;;;4808444;29;20190;-84
2022/05/16 06:30:43;;;;;;;2.28;1.58;;;14.70;99.90;;;;;;4809631;29;20179;-85
2022/05/16 06:33:10;;;;;;;4.63;1.65;;;14.90;99.90;;;;;;4809310;29;20186;-82
2022/05/16 06:35:38;;;;;;;4.38;2.13;;;15.00;99.90;;;;;;4808326;29;20182;-83
2022/05/16 06:38:12;;;;;;;3.60;1.70;;;15.20;99.90;;;;;;4808397;29;20225;-83
2022/05/16 06:40:41;;;;;;;3.53;1.50;;;15.30;99.90;;;;;;4808159;29;20301;-79
2022/05/16 06:43:08;;;;;;;2.55;1.75;;;15.40;99.90;;;;;;4809006;29;20226;-81
2022/05/16 06:45:34;;;;;;;3.97;1.70;;;15.50;99.90;;;;;;4811736;29;20218;-82
2022/05/16 06:48:01;;;;;;;3.03;1.55;;;15.70;99.90;;;;;;4808947;29;20250;-82
2022/05/16 06:50:27;;;;;;;3.55;1.60;;;15.80;99.90;;;;;;4809333;29;20217;-81
2022/05/16 06:52:53;;;;;;;3.58;1.65;;;16.00;99.70;;;;;;4815260;29;20185;-79
2022/05/16 06:55:19;;;;;;;2.75;1.50;;;16.10;98.30;;;;;;4826968;29;20196;-82
2022/05/16 06:57:45;;;;;;;7.88;1.60;;;16.30;99.00;;;;;;4827191;29;20174;-80
2022/05/16 07:00:12;;;;;;;6.25;1.77;;;16.50;97.80;;;;;;4826613;29;20222;-81
2022/05/16 07:02:38;;;;;;;3.78;1.73;;;16.70;98.50;;;;;;4826936;29;20649;-83
2022/05/16 07:05:04;;;;;;;4.32;1.73;;;16.90;97.80;;;;;;4826826;29;20188;-80
2022/05/16 07:07:30;;;;;;;3.92;1.60;;;17.00;97.20;;;;;;4826865;29;20170;-81
2022/05/16 07:09:56;;;;;;;4.78;1.52;;;17.20;97.50;;;;;;4826934;29;20232;-80
2022/05/16 07:12:22;;;;;;;3.83;1.58;;;17.30;96.90;;;;;;4826765;29;20254;-81
2022/05/16 07:14:48;;;;;;;5.95;1.60;;;17.40;96.40;;;;;;4816326;29;20183;-79
2022/05/16 07:17:14;;;;;;;4.10;1.45;;;17.60;96.70;;;;;;4807768;29;20179;-81
2022/05/16 07:19:40;;;;;;;4.18;1.77;;;17.80;96.10;;;;;;4807820;29;20203;-82
2022/05/16 07:22:10;;;;;;;3.90;1.52;;;17.90;95.20;;;;;;4807908;29;20243;-82
2022/05/16 07:24:35;;;;;;;4.82;1.40;;;18.00;95.80;;;;;;4808361;29;20254;-82
2022/05/16 07:29:45;;;;;;;7.20;1.80;;;18.30;94.90;;;;;;4808397;29;20185;-81
2022/05/16 07:32:12;;;;;;;3.25;1.35;;;18.50;94.60;;;;;;4807727;29;20183;-87
2022/05/16 07:34:39;;;;;;;3.25;1.60;;;18.60;94.50;;;;;;4807003;29;20191;-82
2022/05/16 07:37:05;;;;;;;2.40;1.40;;;18.70;93.50;;;;;;4807111;29;20194;-80
2022/05/16 07:39:31;;;;;;;2.75;1.15;;;18.90;93.60;;;;;;4808024;29;20634;-81
2022/05/16 07:41:59;;;;;;;5.15;1.50;;;19.10;93.80;;;;;;4807428;29;20242;-80
2022/05/16 07:44:25;;;;;;;2.88;1.30;;;19.20;93.10;;;;;;4813595;29;20190;-81
2022/05/16 07:46:50;;;;;;;5.45;1.30;;;19.50;92.50;;;;;;4826115;29;20594;-82
2022/05/16 07:49:17;;;;;;;4.70;1.40;;;19.70;92.00;;;;;;4824967;29;20206;-81
2022/05/16 07:51:42;;;;;;;4.00;1.20;;;19.80;92.10;;;;;;4826303;29;20268;-83
2022/05/16 07:54:08;;;;;;;3.65;1.48;;;19.80;91.80;;;;;;4826131;29;20679;-81
2022/05/16 07:56:34;;;;;;;3.45;1.33;;;19.80;92.20;;;;;;4826185;29;20182;-81
2022/05/16 07:59:02;;;;;;;3.50;1.40;;;19.70;92.50;;;;;;4826420;29;20239;-85
2022/05/16 08:01:28;;;;;;;6.10;1.50;;;19.60;92.20;;;;;;4825089;29;20541;-80
2022/05/16 08:03:54;;;;;;;1.77;1.08;;;19.60;91.40;;;;;;4825912;29;20182;-82
2022/05/16 08:06:20;;;;;;;3.90;1.60;;;19.60;91.10;;;;;;4826097;29;20186;-81
2022/05/16 08:11:29;;;;;;;4.30;1.77;;;19.90;91.00;;;;;;4807568;29;20177;-80
2022/05/16 08:13:55;;;;;;;1.80;1.13;;;20.20;91.50;;;;;;4810723;29;20202;-80
2022/05/16 08:16:21;;;;;;;5.93;1.58;;;20.50;90.00;;;;;;4825522;29;20527;-83
2022/05/16 08:18:46;;;;;;;5.78;1.42;;;20.50;89.40;;;;;;4825883;29;20280;-83
2022/05/16 08:21:12;;;;;;;3.00;1.30;;;20.60;89.70;;;;;;4824636;29;20214;-82
2022/05/16 08:23:38;;;;;;;3.20;1.33;;;20.70;89.40;;;;;;4824646;29;20247;-83
2022/05/16 08:26:04;;;;;;;7.07;1.58;;;20.80;90.00;;;;;;4825751;29;20209;-82
2022/05/16 08:28:34;;;;;;;4.65;1.73;;;20.90;89.70;;;;;;4816000;29;20213;-83
2022/05/16 08:31:00;;;;;;;4.78;1.50;;;20.90;89.30;;;;;;4807206;29;20524;-83
2022/05/16 08:33:26;;;;;;;5.57;1.38;;;21.00;88.70;;;;;;4807422;29;20187;-83
2022/05/16 08:41:28;;;;;;;2.70;1.40;;;21.50;86.40;;;;;;4825379;29;20244;-80
2022/05/16 08:44:20;;;;;;;5.30;1.05;;;21.60;85.30;;;;;;4821896;29;20186;-81
2022/05/16 08:47:01;;;;;;;4.90;1.30;;;21.80;84.80;;;;;;4807032;29;20185;-82
2022/05/16 08:49:42;;;;;;;3.30;1.45;;;21.90;85.00;;;;;;4807172;29;20219;-81
2022/05/16 08:52:12;;;;;;;4.97;1.40;;;22.20;85.70;;;;;;4807181;29;20166;-82
2022/05/16 08:54:42;;;;;;;3.17;1.10;;;22.30;82.60;;;;;;4805066;29;20198;-86
2022/05/16 08:57:12;;;;;;;1.88;1.13;;;22.50;83.40;;;;;;4807375;29;20573;-85
2022/05/16 08:59:41;;;;;;;3.47;1.13;;;22.60;82.90;;;;;;4807098;29;20202;-83
2022/05/16 09:02:18;;;;;;;4.97;1.30;;;22.60;81.20;;;;;;4805499;29;20183;-81
2022/05/16 09:04:52;;;;;;;3.95;1.55;;;22.70;83.20;;;;;;4808604;29;20194;-81
2022/05/16 09:07:31;;;;;;;2.63;1.05;;;22.80;80.20;;;;;;4807142;29;20185;-81
2022/05/16 09:10:21;;;;;;;2.50;1.20;;;22.90;78.90;;;;;;4807010;29;20174;-83
2022/05/16 09:12:56;;;;;;;2.28;1.23;;;23.10;80.40;;;;;;4807100;29;20179;-81
2022/05/16 09:15:30;;;;;;;3.85;1.30;;;23.20;79.10;;;;;;4814910;29;20196;-82
2022/05/16 09:18:34;;;;;;;5.53;1.50;;;23.20;77.80;;;;;;4805876;29;20186;-84
2022/05/16 09:21:32;;;;;;;3.35;1.70;;;23.40;80.90;;;;;;4806753;29;20295;-81
2022/05/16 09:24:10;;;;;;;3.10;1.33;;;23.40;77.70;;;;;;4806956;29;20171;-82
2022/05/16 09:27:02;;;;;;;3.58;1.45;;;23.60;81.60;;;;;;4806916;29;20569;-84
2022/05/16 09:29:45;;;;;;;5.63;1.50;;;23.60;80.30;;;;;;4806842;29;20730;-83
2022/05/16 09:32:27;;;;;;;4.57;1.10;;;23.80;77.40;;;;;;4806724;29;20175;-84
2022/05/16 09:34:54;;;;;;;3.25;1.38;;;23.90;76.00;;;;;;4806786;29;20174;-82
2022/05/16 09:37:20;;;;;;;3.55;1.20;;;24.00;77.10;;;;;;4806684;29;20183;-83
2022/05/16 09:39:48;;;;;;;4.65;1.20;;;23.90;74.50;;;;;;4806866;29;20207;-81
2022/05/16 09:42:15;;;;;;;2.72;1.38;;;23.90;76.20;;;;;;4806161;29;20626;-82
2022/05/16 09:44:47;;;;;;;4.22;1.25;;;24.10;76.50;;;;;;4809228;29;20183;-82
2022/05/16 09:47:34;;;;;;;6.05;1.48;;;24.20;75.10;;;;;;4809995;29;20215;-83
2022/05/16 09:50:21;;;;;;;3.40;1.23;;;24.20;74.40;;;;;;4806266;29;20204;-83
2022/05/16 09:53:09;;;;;;;5.38;1.77;;;24.20;74.70;;;;;;4808721;29;20183;-83
2022/05/16 09:55:53;;;;;;;5.75;1.75;;;24.10;74.10;;;;;;4810090;29;20217;-83
2022/05/16 09:58:22;;;;;;;4.28;1.10;;;24.20;77.30;;;;;;4810291;29;20207;-83
2022/05/16 10:01:01;;;;;;;7.05;1.25;;;24.40;76.10;;;;;;4809665;29;20646;-84
2022/05/16 10:03:47;;;;;;;5.10;1.30;;;24.50;74.60;;;;;;4809837;29;20660;-83
2022/05/16 10:06:31;;;;;;;6.15;1.73;;;24.70;80.40;;;;;;4809883;29;20189;-83
2022/05/16 10:09:16;;;;;;;7.30;1.40;;;24.80;74.20;;;;;;4808639;29;20190;-83
2022/05/16 10:11:50;;;;;;;2.95;1.40;;;24.80;75.10;;;;;;4810000;29;20183;-85
2022/05/16 10:14:17;;;;;;;3.47;1.40;;;24.70;75.40;;;;;;4815481;29;20189;-84
2022/05/16 10:16:48;;;;;;;3.88;1.33;;;24.60;74.30;;;;;;4827311;29;20268;-81
2022/05/16 10:19:18;;;;;;;4.78;1.67;;;24.70;75.10;;;;;;4827769;29;20175;-79
2022/05/16 10:21:57;;;;;;;4.15;1.63;;;24.70;74.70;;;;;;4813980;29;20634;-79
2022/05/16 10:24:31;;;;;;;4.10;1.40;;;24.90;75.70;;;;;;4809020;29;20182;-80
2022/05/16 10:27:01;;;;;;;4.40;1.50;;;25.00;76.10;;;;;;4808358;29;20201;-77
2022/05/16 10:29:31;;;;;;;7.00;1.42;;;25.00;75.20;;;;;;4808778;29;20217;-81
2022/05/16 10:35:02;;;;;;;3.88;1.60;;;25.30;74.70;;;;;;4809356;29;20178;-78
2022/05/16 10:37:32;;;;;;;3.75;1.33;;;25.50;76.10;;;;;;4807991;29;20191;-80
2022/05/16 10:40:12;;;;;;;2.05;1.25;;;25.50;75.80;;;;;;4808939;29;20908;-79
2022/05/16 10:43:09;;;;;;;4.55;1.67;;;25.60;76.00;;;;;;4807852;29;20631;-83
2022/05/16 10:45:35;;;;;;;2.08;1.30;;;25.70;73.60;;;;;;4823484;29;20649;-81
2022/05/16 10:48:26;;;;;;;3.10;1.20;;;25.70;75.10;;;;;;4827012;29;20182;-79
2022/05/16 10:51:08;;;;;;;5.13;1.65;;;25.70;74.20;;;;;;4809459;29;20646;-80
2022/05/16 10:53:50;;;;;;;3.53;1.27;;;25.90;73.60;;;;;;4811857;29;20178;-81
2022/05/16 10:56:50;;;;;;;3.17;1.55;;;26.00;74.20;;;;;;4825836;29;20246;-79
2022/05/16 10:59:28;;;;;;;3.70;1.45;;;26.00;73.00;;;;;;4825160;29;20193;-82
2022/05/16 11:02:16;;;;;;;6.32;1.40;;;25.90;73.40;;;;;;4826813;29;20633;-81
2022/05/16 11:04:51;;;;;;;2.92;1.30;;;25.80;72.40;;;;;;4820636;29;20195;-82
2022/05/16 11:07:49;;;;;;;2.30;1.20;;;26.20;75.60;;;;;;4812810;29;20214;-82
2022/05/16 11:10:53;;;;;;;3.28;1.40;;;26.40;74.80;;;;;;4827014;29;20500;-80
2022/05/16 11:13:36;;;;;;;6.50;1.98;;;26.70;75.40;;;;;;4826884;29;20186;-80
2022/05/16 11:16:24;;;;;;;3.65;1.40;;;26.80;71.80;;;;;;4790320;29;20612;-80
2022/05/16 11:19:23;;;;;;;3.75;1.55;;;27.00;70.80;;;;;;4789409;30;20183;-81
2022/05/16 11:22:14;;;;;;;4.25;1.38;;;26.90;71.60;;;;;;4799233;29;20194;-79
2022/05/16 11:24:58;;;;;;;5.60;1.40;;;27.10;73.80;;;;;;4807760;29;20190;-80
2022/05/16 11:27:30;;;;;;;3.63;1.40;;;27.20;72.60;;;;;;4811057;29;20217;-80
2022/05/16 11:30:10;;;;;;;3.53;1.52;;;27.40;72.40;;;;;;4826482;29;20618;-81
2022/05/16 11:33:07;;;;;;;3.00;1.40;;;27.50;72.60;;;;;;4823305;29;20178;-83
2022/05/16 11:35:42;;;;;;;3.70;1.45;;;27.80;73.20;;;;;;4796661;29;20635;-85
2022/05/16 11:38:33;;;;;;;5.38;1.50;;;27.90;70.80;;;;;;4806846;29;20293;-83
2022/05/16 11:41:08;;;;;;;4.32;1.42;;;27.80;69.60;;;;;;4807352;29;20305;-81
2022/05/16 11:44:07;;;;;;;1.85;1.33;;;27.80;70.70;;;;;;4808277;29;20190;-80
2022/05/16 11:47:03;;;;;;;4.15;1.48;;;27.80;72.40;;;;;;4789650;30;20615;-81
2022/05/16 11:49:56;;;;;;;5.38;1.70;;;27.90;72.30;;;;;;4786220;29;20603;-82
2022/05/16 11:52:31;;;;;;;4.10;1.50;;;28.00;71.10;;;;;;4799926;29;20191;-82
2022/05/16 11:55:01;;;;;;;2.88;1.40;;;27.80;72.20;;;;;;4789623;30;20178;-84
2022/05/16 12:03:16;;;;;;;4.05;1.50;;;27.00;72.40;;;;;;4826016;29;20205;-82
2022/05/16 12:05:45;;;;;;;3.33;1.33;;;26.90;73.60;;;;;;4813157;29;20183;-81
2022/05/16 12:08:24;;;;;;;4.90;1.50;;;26.80;73.90;;;;;;4807739;29;20615;-81
2022/05/16 12:11:18;;;;;;;4.95;1.40;;;26.70;73.40;;;;;;4807920;29;20162;-82
2022/05/16 12:14:09;;;;;;;4.28;1.70;;;26.50;71.60;;;;;;4794083;29;20207;-81
2022/05/16 12:16:54;;;;;;;4.10;1.65;;;26.50;74.30;;;;;;4789598;29;20322;-84
2022/05/16 12:19:41;;;;;;;3.83;1.50;;;26.40;73.90;;;;;;4789847;29;20175;-80
2022/05/16 12:22:19;;;;;;;3.83;1.30;;;26.40;73.80;;;;;;4791471;29;20179;-82
2022/05/16 12:24:54;;;;;;;4.25;2.20;;;26.40;74.00;;;;;;4824201;29;20316;-82
2022/05/16 12:27:27;;;;;;;4.75;1.77;;;26.40;73.90;;;;;;4824568;29;20186;-83
2022/05/16 12:30:01;;;;;;;5.03;1.40;;;26.40;73.90;;;;;;4824418;29;20261;-84
2022/05/16 12:32:30;;;;;;;3.15;1.55;;;26.20;72.50;;;;;;4825198;29;20159;-82
2022/05/16 12:35:27;;;;;;;5.78;1.75;;;26.20;73.90;;;;;;4825679;29;20576;-85
2022/05/16 12:37:56;;;;;;;3.50;1.30;;;26.10;73.70;;;;;;4802873;29;20194;-83
2022/05/16 12:40:51;;;;;;;3.40;1.55;;;26.20;73.70;;;;;;4808821;29;20657;-81
2022/05/16 12:43:36;;;;;;;2.58;1.35;;;26.20;75.10;;;;;;4788617;29;20191;-83
2022/05/16 12:46:11;;;;;;;4.00;1.67;;;26.40;73.90;;;;;;4798547;29;20273;-81
2022/05/16 12:48:51;;;;;;;4.15;1.60;;;26.40;74.50;;;;;;4806053;29;20649;-82
2022/05/16 12:51:45;;;;;;;4.60;1.50;;;26.40;74.30;;;;;;4806664;29;20495;-84
2022/05/16 12:54:30;;;;;;;4.65;1.73;;;26.40;73.00;;;;;;4807103;29;20187;-81
2022/05/16 12:56:58;;;;;;;7.05;1.70;;;26.30;74.20;;;;;;4807020;29;20174;-83
2022/05/16 12:59:47;;;;;;;2.53;1.30;;;26.20;74.90;;;;;;4806064;29;20183;-81
2022/05/16 13:02:29;;;;;;;3.85;1.55;;;26.20;76.20;;;;;;4805163;29;20194;-80
2022/05/16 13:05:15;;;;;;;5.50;1.70;;;26.10;74.50;;;;;;4806634;29;20261;-80
2022/05/16 13:08:14;;;;;;;5.43;1.70;;;26.10;75.60;;;;;;4805651;29;20186;-79
2022/05/16 13:10:43;;;;;;;3.75;1.55;;;26.10;77.80;;;;;;4807193;29;20167;-80
2022/05/16 13:13:24;;;;;;;4.32;1.58;;;26.00;79.00;;;;;;4805524;29;20187;-80
2022/05/16 13:16:08;;;;;;;2.75;1.85;;;26.00;75.80;;;;;;4809825;29;20191;-80
2022/05/16 13:18:52;;;;;;;5.47;1.60;;;25.90;76.00;;;;;;4806787;29;20186;-79
2022/05/16 13:21:20;;;;;;;3.65;1.40;;;25.80;79.10;;;;;;4810456;29;20213;-81
2022/05/16 13:23:46;;;;;;;4.68;1.80;;;25.70;78.70;;;;;;4812907;29;20194;-79
2022/05/16 13:31:48;;;;;;;6.50;1.80;;;25.80;80.00;;;;;;4828175;29;20172;-81
2022/05/16 13:34:27;;;;;;;4.97;1.70;;;25.80;79.10;;;;;;4828249;29;20167;-80
2022/05/16 13:36:53;;;;;;;2.65;1.55;;;25.90;78.90;;;;;;4828208;29;20170;-80
2022/05/16 13:39:20;;;;;;;4.43;1.70;;;26.00;80.10;;;;;;4828135;29;20213;-81
2022/05/16 13:42:00;;;;;;;3.72;1.55;;;26.10;78.10;;;;;;4827509;29;20237;-81
2022/05/16 13:44:37;;;;;;;4.65;1.38;;;26.20;78.60;;;;;;4819329;29;20214;-80
2022/05/16 13:47:10;;;;;;;9.13;1.83;;;26.40;78.80;;;;;;4809571;29;20205;-80
2022/05/16 13:49:36;;;;;;;4.32;1.50;;;26.60;77.40;;;;;;4810003;29;20175;-81
2022/05/16 13:52:03;;;;;;;6.07;1.88;;;26.70;76.70;;;;;;4809916;29;20182;-81